Time;durP1;ratioP1;P1;durP2;ratioP2;P2;SDS_P1;SDS_P2;PMS_P1;PMS_P2;Temp;Humidity;BMP_temperature;BMP_pressure;BME280_temperature;BME280_humidity;BME280_pressure;Samples;Min_cycle;Max_cycle;Signal;HPM_P1;HPM_P2
2022/04/22 00:01:07;;;;;;;11.50;4.50;;;;;;;5.75;100.00;100539.22;7388810;19;20381;-47
2022/04/22 00:03:37;;;;;;;15.67;4.97;;;;;;;5.83;100.00;100528.56;7382335;19;20791;-47
2022/04/22 00:06:07;;;;;;;8.90;4.40;;;;;;;5.87;100.00;100528.81;7385985;19;20413;-46
2022/04/22 00:08:36;;;;;;;10.20;4.63;;;;;;;5.88;100.00;100522.91;7382692;19;20413;-46
2022/04/22 00:13:50;;;;;;;8.93;4.70;;;;;;;5.76;100.00;100517.09;7380951;19;20424;-48
2022/04/22 00:16:21;;;;;;;10.37;4.67;;;;;;;5.76;100.00;100502.63;7388775;19;20398;-45
2022/04/22 00:18:50;;;;;;;14.03;4.83;;;;;;;5.78;100.00;100497.56;7381882;19;20404;-46
2022/04/22 00:21:20;;;;;;;9.87;5.07;;;;;;;5.70;100.00;100498.81;7389518;19;20476;-47
2022/04/22 00:23:52;;;;;;;10.37;5.13;;;;;;;5.68;100.00;100496.16;7384088;19;20421;-46
2022/04/22 00:26:21;;;;;;;10.57;4.70;;;;;;;5.73;100.00;100489.63;7390297;19;20389;-47
2022/04/22 00:28:53;;;;;;;10.67;4.40;;;;;;;5.76;100.00;100481.25;7389186;19;20954;-47
2022/04/22 00:31:23;;;;;;;13.23;6.60;;;;;;;5.74;100.00;100476.03;7397044;19;20386;-46
2022/04/22 00:33:52;;;;;;;11.77;5.00;;;;;;;5.68;100.00;100480.78;7389937;19;20449;-47
2022/04/22 00:36:22;;;;;;;8.30;5.13;;;;;;;5.73;100.00;100476.81;7397720;19;20393;-45
2022/04/22 00:38:52;;;;;;;10.10;5.33;;;;;;;5.76;100.00;100477.00;7392653;19;20496;-47
2022/04/22 00:41:22;;;;;;;12.37;6.90;;;;;;;5.73;100.00;100479.38;7397089;19;20741;-47
2022/04/22 00:43:54;;;;;;;16.20;6.40;;;;;;;5.81;100.00;100464.47;7392993;19;20787;-46
2022/04/22 00:46:24;;;;;;;11.17;5.10;;;;;;;5.62;100.00;100471.09;7397374;19;20409;-50
2022/04/22 00:48:54;;;;;;;10.73;4.83;;;;;;;5.61;100.00;100473.56;7389023;19;20416;-50
2022/04/22 00:51:24;;;;;;;16.30;7.60;;;;;;;5.67;100.00;100471.34;7396610;19;20395;-47
2022/04/22 00:53:55;;;;;;;8.53;4.80;;;;;;;5.65;100.00;100465.28;7391588;19;20422;-45
2022/04/22 00:56:24;;;;;;;10.33;5.70;;;;;;;5.60;100.00;100461.56;7397227;19;20383;-48
2022/04/22 00:58:56;;;;;;;13.50;7.33;;;;;;;5.59;100.00;100463.22;7391329;19;21361;-46
2022/04/22 01:01:26;;;;;;;9.10;5.33;;;;;;;5.48;100.00;100457.50;7397113;19;20400;-46
2022/04/22 01:12:03;;;;;;;13.30;5.20;;;;;;;5.53;100.00;100430.50;7387290;19;20407;-47
2022/04/22 01:14:35;;;;;;;11.30;4.90;;;;;;;5.75;100.00;100433.41;7394660;19;20405;-49
2022/04/22 01:17:06;;;;;;;11.17;5.20;;;;;;;5.60;100.00;100430.84;7390589;19;20397;-46
2022/04/22 01:19:35;;;;;;;9.07;4.00;;;;;;;5.57;100.00;100428.09;7397145;19;20389;-46
2022/04/22 01:22:08;;;;;;;11.30;5.33;;;;;;;5.61;100.00;100419.81;7394176;19;20405;-46
2022/04/22 01:24:38;;;;;;;9.23;4.53;;;;;;;5.56;100.00;100416.09;7394949;19;20419;-48
2022/04/22 01:27:09;;;;;;;11.27;4.70;;;;;;;5.55;100.00;100410.13;7390884;19;20394;-46
2022/04/22 01:29:39;;;;;;;7.00;4.40;;;;;;;5.50;100.00;100420.06;7397033;19;20463;-46
2022/04/22 01:32:09;;;;;;;8.10;4.63;;;;;;;5.43;100.00;100415.41;7391557;19;20395;-46
2022/04/22 01:34:39;;;;;;;9.60;4.67;;;;;;;5.42;100.00;100416.22;7394084;19;20415;-48
2022/04/22 01:37:11;;;;;;;11.10;5.40;;;;;;;5.43;100.00;100406.88;7394637;19;20402;-46
2022/04/22 01:39:41;;;;;;;6.83;4.57;;;;;;;5.36;100.00;100403.97;7398313;19;20398;-46
2022/04/22 01:42:10;;;;;;;8.33;4.77;;;;;;;5.26;100.00;100407.66;7390599;19;20388;-47
2022/04/22 01:44:40;;;;;;;12.60;4.73;;;;;;;5.26;100.00;100399.09;7394811;19;20421;-45
2022/04/22 01:47:10;;;;;;;10.90;5.40;;;;;;;5.28;100.00;100387.25;7390148;19;20410;-48
2022/04/22 01:49:39;;;;;;;11.47;4.87;;;;;;;5.22;100.00;100382.69;7396115;19;20398;-45
2022/04/22 01:52:12;;;;;;;8.90;4.40;;;;;;;5.23;100.00;100378.47;7388945;19;20388;-47
2022/04/22 01:54:41;;;;;;;8.87;5.00;;;;;;;5.25;100.00;100375.22;7394485;19;20412;-47
2022/04/22 01:57:11;;;;;;;19.03;5.13;;;;;;;5.29;100.00;100367.69;7388240;19;20479;-47
2022/04/22 01:59:44;;;;;;;24.63;13.57;;;;;;;5.38;100.00;100368.19;7395828;19;20471;-46
2022/04/22 02:02:13;;;;;;;69.20;28.93;;;;;;;5.44;100.00;100358.31;7390447;19;20424;-46
2022/04/22 02:04:43;;;;;;;25.57;12.63;;;;;;;5.47;100.00;100362.72;7393787;19;20420;-47
2022/04/22 02:07:15;;;;;;;26.63;12.13;;;;;;;5.48;100.00;100354.28;7387583;19;20397;-50
2022/04/22 02:09:44;;;;;;;12.07;6.77;;;;;;;5.33;100.00;100367.09;7394967;19;20889;-46
2022/04/22 02:12:14;;;;;;;17.13;9.23;;;;;;;5.34;100.00;100361.16;7388898;19;20412;-46
2022/04/22 02:14:43;;;;;;;20.03;9.30;;;;;;;5.44;100.00;100350.63;7393605;19;20435;-47
2022/04/22 02:17:13;;;;;;;21.70;10.80;;;;;;;5.43;100.00;100351.44;7390373;19;20418;-47
2022/04/22 02:19:42;;;;;;;21.00;9.80;;;;;;;5.43;100.00;100355.69;7395283;19;20388;-53
2022/04/22 02:22:14;;;;;;;13.67;6.13;;;;;;;5.36;100.00;100346.78;7388928;19;20375;-53
2022/04/22 02:24:44;;;;;;;9.50;5.70;;;;;;;5.36;100.00;100336.53;7393347;19;20407;-51
2022/04/22 02:29:55;;;;;;;15.10;6.10;;;;;;;5.23;100.00;100337.53;7394903;19;20988;-49
2022/04/22 02:32:25;;;;;;;13.77;4.47;;;;;;;5.23;100.00;100332.44;7389370;19;20442;-46
2022/04/22 02:34:54;;;;;;;12.60;4.60;;;;;;;5.15;100.00;100334.53;7393241;19;20416;-50
2022/04/22 02:37:26;;;;;;;11.17;5.63;;;;;;;5.08;100.00;100330.75;7390039;19;20947;-47
2022/04/22 02:39:56;;;;;;;11.70;5.80;;;;;;;5.17;100.00;100316.72;7393568;19;20384;-46
2022/04/22 02:47:58;;;;;;;11.93;5.40;;;;;;;5.07;100.00;100312.78;7390465;19;20508;-48
2022/04/22 02:50:28;;;;;;;11.07;4.40;;;;;;;5.10;100.00;100300.16;7393136;19;20443;-46
2022/04/22 02:53:00;;;;;;;18.43;5.23;;;;;;;5.05;100.00;100302.44;7388405;19;20415;-45
2022/04/22 02:55:29;;;;;;;12.63;5.10;;;;;;;5.04;100.00;100300.69;7391975;19;20418;-47
2022/04/22 02:57:59;;;;;;;9.30;4.30;;;;;;;5.05;100.00;100297.34;7388037;19;20419;-45
2022/04/22 03:00:28;;;;;;;9.20;4.80;;;;;;;5.02;100.00;100286.06;7392186;19;20391;-46
2022/04/22 03:02:58;;;;;;;11.87;5.57;;;;;;;5.07;100.00;100284.66;7387084;19;20847;-45
2022/04/22 03:05:27;;;;;;;12.53;4.87;;;;;;;5.06;100.00;100275.19;7391093;19;20432;-50
2022/04/22 03:08:00;;;;;;;11.70;4.53;;;;;;;5.12;100.00;100272.97;7387647;19;20419;-48
2022/04/22 03:10:30;;;;;;;9.30;4.60;;;;;;;5.02;100.00;100276.69;7392880;19;20398;-45
2022/04/22 03:13:00;;;;;;;12.20;5.60;;;;;;;5.09;100.00;100262.59;7387960;19;20438;-45
2022/04/22 03:15:29;;;;;;;11.00;4.87;;;;;;;4.99;100.00;100268.84;7395126;19;20414;-45
2022/04/22 03:17:59;;;;;;;8.20;4.50;;;;;;;4.91;100.00;100257.31;7384403;19;20411;-45
2022/04/22 03:20:28;;;;;;;9.50;4.40;;;;;;;4.99;100.00;100251.81;7392551;19;20382;-48
2022/04/22 03:23:00;;;;;;;10.83;5.40;;;;;;;4.92;100.00;100246.31;7387645;19;20422;-46
2022/04/22 03:25:29;;;;;;;10.43;5.50;;;;;;;5.05;100.00;100235.06;7391055;19;20787;-46
2022/04/22 03:27:59;;;;;;;17.00;5.83;;;;;;;5.04;100.00;100231.66;7385631;19;20405;-46
2022/04/22 03:30:29;;;;;;;11.13;5.03;;;;;;;5.07;100.00;100224.13;7394852;19;20446;-45
2022/04/22 03:32:58;;;;;;;13.07;5.60;;;;;;;5.00;100.00;100225.47;7387629;19;20936;-47
2022/04/22 03:35:28;;;;;;;15.30;5.60;;;;;;;5.09;100.00;100219.09;7393840;19;20443;-46
2022/04/22 03:38:00;;;;;;;12.80;5.70;;;;;;;4.98;100.00;100214.28;7383310;19;20750;-46
2022/04/22 03:40:30;;;;;;;21.40;5.73;;;;;;;5.05;100.00;100205.28;7391904;19;20471;-46
2022/04/22 03:42:59;;;;;;;17.33;6.63;;;;;;;5.05;100.00;100199.25;7387197;19;20412;-45
2022/04/22 03:45:29;;;;;;;15.07;6.27;;;;;;;5.06;100.00;100201.03;7390196;19;20966;-47
2022/04/22 03:47:59;;;;;;;22.67;6.70;;;;;;;5.07;100.00;100192.59;7385467;19;20418;-45
2022/04/22 03:50:29;;;;;;;13.97;6.23;;;;;;;5.03;100.00;100190.63;7391956;19;20923;-46
2022/04/22 03:53:01;;;;;;;15.00;5.50;;;;;;;5.00;100.00;100192.25;7385841;19;20415;-46
2022/04/22 03:55:31;;;;;;;21.30;7.03;;;;;;;4.98;100.00;100178.47;7389565;19;20412;-45
2022/04/22 03:58:10;;;;;;;35.00;15.50;;;;;;;5.15;100.00;100173.41;7384611;19;20490;-47
2022/04/22 04:00:40;;;;;;;27.17;11.70;;;;;;;5.33;100.00;100164.97;7392097;19;20434;-47
2022/04/22 04:03:11;;;;;;;26.27;11.97;;;;;;;5.28;100.00;100167.25;7387899;19;20419;-46
2022/04/22 04:05:41;;;;;;;16.87;6.17;;;;;;;5.32;100.00;100153.00;7396345;19;20419;-45
2022/04/22 04:08:15;;;;;;;18.73;8.90;;;;;;;5.22;100.00;100161.81;7394054;19;20948;-47
2022/04/22 04:16:08;;;;;;;21.03;7.60;;;;;;;5.08;100.00;100148.31;7396426;19;20430;-46
2022/04/22 04:18:39;;;;;;;18.20;7.07;;;;;;;5.07;100.00;100131.22;7391998;19;20399;-46
2022/04/22 04:23:56;;;;;;;18.33;7.10;;;;;;;5.08;100.00;100122.72;7392404;19;20771;-47
2022/04/22 04:26:27;;;;;;;22.27;7.50;;;;;;;5.03;100.00;100119.91;7398440;19;20382;-47
2022/04/22 04:28:56;;;;;;;22.30;9.17;;;;;;;5.11;100.00;100117.78;7391795;19;20932;-45
2022/04/22 04:31:26;;;;;;;19.60;7.57;;;;;;;5.08;100.00;100090.34;7398416;19;20392;-47
2022/04/22 04:33:55;;;;;;;14.03;6.53;;;;;;;5.14;100.00;100089.81;7392047;19;20411;-48
2022/04/22 04:36:25;;;;;;;15.30;7.10;;;;;;;5.09;100.00;100097.22;7398086;19;20375;-47
2022/04/22 04:38:57;;;;;;;17.37;7.43;;;;;;;5.11;100.00;100089.63;7392513;19;20411;-45
2022/04/22 04:41:27;;;;;;;12.37;6.60;;;;;;;5.12;100.00;100089.72;7398160;19;20371;-46
2022/04/22 04:43:56;;;;;;;14.40;6.93;;;;;;;5.10;100.00;100085.31;7391480;19;20427;-47
2022/04/22 04:46:26;;;;;;;16.07;5.90;;;;;;;5.16;100.00;100075.41;7396975;19;20902;-46
2022/04/22 04:48:58;;;;;;;13.03;5.47;;;;;;;5.12;100.00;100074.38;7392064;19;20402;-45
2022/04/22 04:51:28;;;;;;;14.13;6.80;;;;;;;5.19;100.00;100070.47;7398417;19;20721;-45
2022/04/22 04:54:00;;;;;;;15.00;6.20;;;;;;;5.24;100.00;100069.03;7391348;19;20409;-45
2022/04/22 04:56:30;;;;;;;19.20;7.33;;;;;;;5.30;100.00;100065.91;7397434;19;20388;-46
2022/04/22 04:58:59;;;;;;;13.27;6.83;;;;;;;5.33;100.00;100063.50;7393098;19;20410;-46
2022/04/22 05:01:29;;;;;;;17.30;5.63;;;;;;;5.35;100.00;100056.81;7396507;19;20368;-46
2022/04/22 05:03:58;;;;;;;13.37;5.67;;;;;;;5.43;100.00;100051.19;7390538;19;20454;-47
2022/04/22 05:06:28;;;;;;;15.10;6.97;;;;;;;5.39;100.00;100051.03;7399264;19;20946;-48
2022/04/22 05:09:00;;;;;;;14.60;6.50;;;;;;;5.46;100.00;100059.91;7391114;19;20415;-48
2022/04/22 05:11:29;;;;;;;18.07;7.30;;;;;;;5.50;100.00;100050.72;7397083;19;20387;-46
2022/04/22 05:14:00;;;;;;;13.60;6.17;;;;;;;5.54;100.00;100050.94;7387596;19;20403;-46
2022/04/22 05:16:30;;;;;;;11.13;6.30;;;;;;;5.56;100.00;100051.03;7396761;19;20377;-46
2022/04/22 05:18:59;;;;;;;15.70;7.83;;;;;;;5.64;100.00;100048.88;7390040;19;20974;-48
2022/04/22 05:21:29;;;;;;;12.90;6.50;;;;;;;5.64;100.00;100054.84;7395846;19;20383;-46
2022/04/22 05:24:01;;;;;;;12.10;5.50;;;;;;;5.70;100.00;100050.84;7392726;19;20443;-46
2022/04/22 05:26:31;;;;;;;9.67;5.33;;;;;;;5.70;100.00;100061.97;7395529;19;20400;-50
2022/04/22 05:29:00;;;;;;;12.60;6.60;;;;;;;5.81;100.00;100060.81;7394346;19;20442;-46
2022/04/22 05:34:12;;;;;;;13.50;5.33;;;;;;;5.85;100.00;100064.38;7388619;19;20442;-47
2022/04/22 05:36:41;;;;;;;10.93;4.53;;;;;;;5.90;100.00;100067.19;7396109;19;20388;-45
2022/04/22 05:39:13;;;;;;;15.00;5.30;;;;;;;5.97;100.00;100069.25;7387866;19;20403;-49
2022/04/22 05:41:43;;;;;;;11.57;5.13;;;;;;;6.01;100.00;100073.72;7395265;19;20396;-47
2022/04/22 05:44:12;;;;;;;17.30;6.73;;;;;;;6.07;100.00;100076.59;7388191;19;20430;-45
2022/04/22 05:46:42;;;;;;;11.83;5.27;;;;;;;6.06;100.00;100094.47;7395763;19;20883;-45
2022/04/22 05:49:11;;;;;;;12.37;5.33;;;;;;;6.16;100.00;100103.50;7387604;19;20420;-47
2022/04/22 05:51:41;;;;;;;10.80;4.90;;;;;;;6.22;100.00;100101.22;7395850;19;20388;-46
2022/04/22 05:54:10;;;;;;;15.87;5.30;;;;;;;6.24;100.00;100104.75;7390144;19;20426;-46
2022/04/22 05:56:42;;;;;;;15.83;4.80;;;;;;;6.27;100.00;100112.59;7394323;19;20388;-45
2022/04/22 05:59:12;;;;;;;8.30;4.87;;;;;;;6.34;100.00;100112.09;7388570;19;20784;-48
2022/04/22 06:01:41;;;;;;;12.80;5.40;;;;;;;6.42;100.00;100117.56;7395454;19;20923;-45
2022/04/22 06:04:11;;;;;;;18.10;5.57;;;;;;;6.53;100.00;100119.75;7388338;19;20410;-48
2022/04/22 06:06:41;;;;;;;16.47;5.37;;;;;;;6.53;100.00;100127.44;7394800;19;20399;-46
2022/04/22 06:12:00;;;;;;;36.40;11.23;;;;;;;6.60;100.00;100145.78;7387793;19;20919;-47
2022/04/22 06:14:30;;;;;;;36.27;11.40;;;;;;;6.60;100.00;100152.56;7392302;19;20429;-49
2022/04/22 06:16:59;;;;;;;17.13;6.60;;;;;;;6.73;100.00;100157.47;7386736;19;20393;-45
2022/04/22 06:19:29;;;;;;;27.30;9.63;;;;;;;6.87;100.00;100160.72;7394159;19;20404;-47
2022/04/22 06:21:58;;;;;;;21.50;6.03;;;;;;;6.92;100.00;100180.56;7390455;19;20484;-46
2022/04/22 06:24:28;;;;;;;20.13;5.20;;;;;;;6.95;100.00;100193.53;7396340;19;20431;-44
2022/04/22 06:26:57;;;;;;;17.10;5.20;;;;;;;7.06;100.00;100200.06;7387156;19;20959;-46
2022/04/22 06:29:30;;;;;;;11.17;5.70;;;;;;;7.16;100.00;100203.91;7397456;19;20385;-45
2022/04/22 06:32:01;;;;;;;14.43;6.60;;;;;;;7.25;100.00;100200.91;7391487;19;20984;-45
2022/04/22 06:34:31;;;;;;;20.73;7.57;;;;;;;7.27;100.00;100220.69;7392650;19;21252;-45
2022/04/22 06:37:02;;;;;;;12.33;5.33;;;;;;;7.30;100.00;100227.66;7388354;19;20409;-45
2022/04/22 06:45:46;;;;;;;24.87;12.10;;;;;;;7.41;100.00;100231.63;7393586;19;20397;-45
2022/04/22 06:47:51;;;;;;;11.23;5.10;;;;;;;7.51;100.00;100244.88;7386935;19;20428;-46
2022/04/22 06:50:21;;;;;;;11.83;4.53;;;;;;;7.52;100.00;100254.31;7393604;19;20388;-47
2022/04/22 06:52:51;;;;;;;9.10;3.90;;;;;;;7.57;100.00;100258.88;7389211;19;20423;-46
2022/04/22 06:55:21;;;;;;;21.07;8.77;;;;;;;7.67;100.00;100260.16;7391478;19;20951;-47
2022/04/22 06:57:52;;;;;;;17.27;6.30;;;;;;;7.70;100.00;100274.84;7387556;19;20947;-45
2022/04/22 07:00:24;;;;;;;22.03;8.53;;;;;;;7.70;100.00;100273.13;7394905;19;20931;-47
2022/04/22 07:02:55;;;;;;;19.07;7.50;;;;;;;7.82;100.00;100285.69;7387548;19;20494;-50
2022/04/22 07:05:25;;;;;;;13.27;4.50;;;;;;;7.89;100.00;100284.25;7390108;19;20763;-48
2022/04/22 07:07:55;;;;;;;10.93;4.37;;;;;;;8.06;100.00;100286.69;7386637;19;20497;-50
2022/04/22 07:10:26;;;;;;;8.87;3.90;;;;;;;8.18;100.00;100305.22;7392226;19;20386;-46
2022/04/22 07:12:59;;;;;;;28.70;11.40;;;;;;;8.29;100.00;100318.56;7389747;19;20449;-46
2022/04/22 07:15:31;;;;;;;54.43;19.13;;;;;;;8.31;100.00;100328.91;7391435;19;20415;-48
2022/04/22 07:18:02;;;;;;;21.03;7.50;;;;;;;8.21;100.00;100341.34;7382394;19;20437;-46
2022/04/22 07:20:32;;;;;;;15.60;4.50;;;;;;;8.29;100.00;100343.38;7395578;19;20395;-48
2022/04/22 07:23:02;;;;;;;28.80;12.10;;;;;;;8.26;100.00;100356.97;7385832;19;20769;-46
2022/04/22 07:25:31;;;;;;;17.70;4.13;;;;;;;8.26;100.00;100363.81;7390296;19;20434;-48
2022/04/22 07:28:02;;;;;;;45.87;19.90;;;;;;;8.27;100.00;100358.75;7387058;19;21037;-47
2022/04/22 07:30:35;;;;;;;32.37;12.37;;;;;;;8.33;100.00;100360.69;7391473;19;20394;-47
2022/04/22 07:33:05;;;;;;;8.80;4.60;;;;;;;8.40;100.00;100367.00;7385994;19;20439;-46
2022/04/22 07:35:35;;;;;;;28.57;10.33;;;;;;;8.48;100.00;100371.66;7393841;19;20419;-45
2022/04/22 07:38:06;;;;;;;17.23;6.73;;;;;;;8.53;100.00;100383.88;7386559;19;20421;-45
2022/04/22 07:40:37;;;;;;;18.37;7.83;;;;;;;8.64;100.00;100377.50;7400268;19;20391;-46
2022/04/22 07:48:35;;;;;;;18.20;6.83;;;;;;;8.95;100.00;100412.28;7392010;19;20415;-49
2022/04/22 07:51:05;;;;;;;14.27;5.63;;;;;;;9.03;100.00;100420.31;7399146;19;20383;-47
2022/04/22 07:53:35;;;;;;;9.33;3.93;;;;;;;8.94;100.00;100415.66;7392145;19;20470;-49
2022/04/22 07:56:05;;;;;;;15.10;5.20;;;;;;;9.27;100.00;100411.84;7396991;19;20495;-46
2022/04/22 07:58:36;;;;;;;14.37;4.97;;;;;;;9.58;100.00;100429.47;7390998;19;20494;-46
2022/04/22 08:01:09;;;;;;;13.13;6.67;;;;;;;9.76;100.00;100428.44;7396569;19;20390;-46
2022/04/22 08:03:39;;;;;;;10.10;4.53;;;;;;;10.14;100.00;100433.31;7392237;19;20479;-47
2022/04/22 08:06:10;;;;;;;10.07;4.23;;;;;;;10.15;100.00;100447.97;7396224;19;20492;-46
2022/04/22 08:08:40;;;;;;;14.70;4.63;;;;;;;10.18;100.00;100447.22;7389373;19;20423;-46
2022/04/22 08:11:10;;;;;;;10.63;4.10;;;;;;;10.19;100.00;100467.91;7398298;19;20463;-46
2022/04/22 08:13:41;;;;;;;10.10;4.57;;;;;;;10.16;100.00;100472.94;7391190;19;20414;-48
2022/04/22 08:16:13;;;;;;;11.77;4.53;;;;;;;10.33;100.00;100486.50;7398235;19;20376;-48
2022/04/22 08:18:43;;;;;;;18.77;7.80;;;;;;;10.03;100.00;100494.78;7392452;19;20440;-48
2022/04/22 08:21:13;;;;;;;12.00;4.67;;;;;;;9.91;100.00;100500.34;7398689;19;20375;-45
2022/04/22 08:23:42;;;;;;;17.10;5.33;;;;;;;9.86;100.00;100510.44;7392373;19;20411;-46
2022/04/22 08:26:13;;;;;;;10.57;4.60;;;;;;;9.67;100.00;100516.53;7396382;19;20375;-47
2022/04/22 08:28:43;;;;;;;14.23;6.27;;;;;;;9.83;100.00;100512.91;7393217;19;20415;-51
2022/04/22 08:31:17;;;;;;;25.50;10.03;;;;;;;9.91;100.00;100514.91;7398258;19;21004;-47
2022/04/22 08:33:48;;;;;;;13.53;5.43;;;;;;;9.95;100.00;100507.34;7392816;19;20442;-46
2022/04/22 08:36:18;;;;;;;16.63;5.70;;;;;;;9.85;100.00;100505.25;7397404;19;20392;-46
2022/04/22 08:38:48;;;;;;;13.33;4.50;;;;;;;9.89;100.00;100512.25;7389593;19;20411;-47
2022/04/22 08:41:19;;;;;;;8.87;4.50;;;;;;;10.01;100.00;100517.03;7397532;19;20388;-46
2022/04/22 08:43:49;;;;;;;8.10;4.20;;;;;;;9.93;100.00;100524.47;7390773;19;20438;-48
2022/04/22 08:51:46;;;;;;;12.83;4.77;;;;;;;10.13;100.00;100530.44;7396853;19;20390;-47
2022/04/22 08:54:17;;;;;;;13.37;4.93;;;;;;;10.46;100.00;100526.53;7391238;19;20426;-46
2022/04/22 08:56:46;;;;;;;12.30;4.87;;;;;;;10.65;100.00;100540.16;7397419;19;20388;-47
2022/04/22 08:59:16;;;;;;;39.63;13.20;;;;;;;10.82;100.00;100551.09;7390398;19;20762;-47
2022/04/22 09:01:48;;;;;;;13.50;5.43;;;;;;;10.82;100.00;100538.19;7396289;19;20380;-46
2022/04/22 09:04:19;;;;;;;14.00;6.10;;;;;;;10.69;100.00;100548.88;7394578;19;20443;-45
2022/04/22 09:06:50;;;;;;;10.93;4.83;;;;;;;10.71;100.00;100548.13;7395007;19;20522;-46
2022/04/22 09:09:21;;;;;;;12.23;5.03;;;;;;;10.89;100.00;100558.28;7395659;19;20419;-47
2022/04/22 09:11:51;;;;;;;15.00;5.30;;;;;;;10.96;100.00;100559.38;7397177;19;20432;-46
2022/04/22 09:14:26;;;;;;;13.20;4.83;;;;;;;10.98;100.00;100567.16;7392386;19;20426;-46
2022/04/22 09:16:58;;;;;;;22.47;6.87;;;;;;;11.02;100.00;100582.81;7387551;19;20388;-46
2022/04/22 09:19:27;;;;;;;12.00;5.03;;;;;;;11.00;100.00;100581.91;7395525;19;20388;-46
2022/04/22 09:22:00;;;;;;;19.13;3.60;;;;;;;11.20;100.00;100585.22;7390718;19;20397;-47
2022/04/22 09:24:29;;;;;;;12.17;5.00;;;;;;;11.40;100.00;100581.59;7395224;19;20436;-46
2022/04/22 09:27:06;;;;;;;9.90;4.90;;;;;;;11.22;100.00;100587.84;7390517;19;20395;-46
2022/04/22 09:29:43;;;;;;;13.43;4.97;;;;;;;11.21;100.00;100592.13;7396231;19;20460;-46
2022/04/22 09:32:23;;;;;;;9.50;3.90;;;;;;;11.47;100.00;100583.56;7388946;19;20433;-49
2022/04/22 09:34:53;;;;;;;15.03;4.67;;;;;;;11.38;100.00;100578.06;7396847;19;20497;-49
2022/04/22 09:42:49;;;;;;;10.97;4.47;;;;;;;11.17;100.00;100582.50;7388852;19;20424;-46
2022/04/22 09:45:18;;;;;;;14.83;4.60;;;;;;;11.10;100.00;100583.13;7393619;19;20409;-46
2022/04/22 09:47:59;;;;;;;15.03;5.90;;;;;;;11.10;100.00;100580.53;7388565;19;20500;-46
2022/04/22 09:50:43;;;;;;;15.30;4.90;;;;;;;11.10;100.00;100583.13;7395470;19;20402;-46
2022/04/22 09:53:14;;;;;;;13.07;4.70;;;;;;;11.00;100.00;100575.84;7385225;19;20491;-48
2022/04/22 09:55:54;;;;;;;11.50;4.67;;;;;;;10.99;100.00;100579.25;7392446;19;20415;-46
2022/04/22 09:58:25;;;;;;;10.17;4.63;;;;;;;11.05;100.00;100569.16;7390775;19;20420;-46
2022/04/22 10:01:04;;;;;;;11.07;5.00;;;;;;;10.97;100.00;100581.75;7394472;19;20397;-46
2022/04/22 10:03:38;;;;;;;15.60;6.13;;;;;;;10.84;100.00;100572.69;7389722;19;20421;-46
2022/04/22 10:06:08;;;;;;;13.00;5.00;;;;;;;10.87;100.00;100574.53;7392821;19;20418;-47
2022/04/22 10:08:39;;;;;;;12.83;5.40;;;;;;;10.70;100.00;100579.03;7389428;19;20422;-52
2022/04/22 10:11:10;;;;;;;17.80;5.80;;;;;;;10.48;100.00;100573.03;7394896;19;20623;-46
2022/04/22 10:13:44;;;;;;;16.33;5.13;;;;;;;10.77;100.00;100578.47;7387497;19;20419;-47
2022/04/22 10:16:15;;;;;;;11.00;4.97;;;;;;;11.07;100.00;100580.41;7393695;19;20778;-47
2022/04/22 10:18:47;;;;;;;22.60;5.90;;;;;;;11.09;100.00;100586.53;7387897;19;20440;-46
2022/04/22 10:21:16;;;;;;;13.03;5.70;;;;;;;11.20;100.00;100584.34;7394647;19;20416;-51
2022/04/22 10:23:47;;;;;;;13.60;5.00;;;;;;;11.16;100.00;100587.63;7386472;19;20746;-46
2022/04/22 10:26:18;;;;;;;12.43;5.30;;;;;;;10.87;100.00;100580.53;7394572;19;20392;-49
2022/04/22 10:28:48;;;;;;;13.83;6.10;;;;;;;10.83;100.00;100589.00;7388761;19;20443;-46
2022/04/22 10:31:18;;;;;;;14.50;5.00;;;;;;;10.78;100.00;100590.53;7393335;19;20379;-46
2022/04/22 10:33:52;;;;;;;15.30;6.17;;;;;;;10.70;100.00;100581.59;7387981;19;20992;-46
2022/04/22 10:36:25;;;;;;;12.23;5.60;;;;;;;10.55;100.00;100581.91;7393409;19;20401;-47
2022/04/22 10:38:54;;;;;;;10.20;5.30;;;;;;;10.37;100.00;100586.34;7389301;19;20408;-46
2022/04/22 10:41:25;;;;;;;16.63;6.40;;;;;;;10.42;100.00;100583.09;7392093;19;20380;-46
2022/04/22 10:49:22;;;;;;;20.73;8.17;;;;;;;10.32;100.00;100569.84;7392253;19;20750;-46
2022/04/22 10:52:09;;;;;;;24.30;6.83;;;;;;;10.36;100.00;100555.38;7392290;19;20896;-50
2022/04/22 10:55:08;;;;;;;14.43;5.93;;;;;;;10.01;100.00;100566.03;7392188;19;20509;-46
2022/04/22 10:57:42;;;;;;;15.93;7.10;;;;;;;10.18;100.00;100568.38;7388220;19;20848;-46
2022/04/22 11:00:31;;;;;;;11.90;5.60;;;;;;;10.16;100.00;100563.19;7393349;19;20465;-50
2022/04/22 11:03:13;;;;;;;12.63;4.80;;;;;;;10.07;100.00;100557.66;7385634;19;20403;-46
2022/04/22 11:05:49;;;;;;;10.10;4.53;;;;;;;10.05;100.00;100557.56;7394430;19;20431;-51
2022/04/22 11:08:24;;;;;;;17.10;5.30;;;;;;;10.21;100.00;100560.78;7386650;19;20418;-47
2022/04/22 11:11:08;;;;;;;13.50;5.47;;;;;;;10.25;100.00;100568.69;7393135;19;20388;-47
2022/04/22 11:13:42;;;;;;;15.23;5.07;;;;;;;10.29;100.00;100559.38;7385369;19;20795;-45
2022/04/22 11:16:16;;;;;;;10.40;4.53;;;;;;;10.22;100.00;100553.13;7392767;19;20894;-50
2022/04/22 11:18:47;;;;;;;10.83;5.07;;;;;;;10.42;100.00;100552.13;7387231;19;20413;-46
2022/04/22 11:21:42;;;;;;;10.27;5.30;;;;;;;10.39;100.00;100550.31;7392867;19;20461;-47
2022/04/22 11:24:14;;;;;;;13.47;4.40;;;;;;;10.25;100.00;100553.22;7385448;19;20437;-48
2022/04/22 11:26:45;;;;;;;13.80;5.03;;;;;;;10.15;100.00;100557.97;7393541;19;20394;-48
2022/04/22 11:29:16;;;;;;;16.60;6.27;;;;;;;10.26;100.00;100554.97;7388062;19;20434;-49
2022/04/22 11:31:58;;;;;;;9.50;4.90;;;;;;;10.29;100.00;100559.38;7396419;19;20923;-46
2022/04/22 11:34:57;;;;;;;11.20;5.50;;;;;;;10.49;100.00;100556.72;7390164;19;20435;-46
2022/04/22 11:37:30;;;;;;;13.73;4.80;;;;;;;10.72;100.00;100559.34;7384101;19;20424;-52
2022/04/22 11:39:59;;;;;;;13.60;5.20;;;;;;;10.91;100.00;100555.72;7392638;19;20475;-48
2022/04/22 11:42:29;;;;;;;22.43;5.57;;;;;;;11.11;100.00;100569.38;7382096;19;20526;-47
2022/04/22 11:45:09;;;;;;;10.20;5.23;;;;;;;11.29;100.00;100578.63;7389907;19;20420;-47
2022/04/22 11:47:38;;;;;;;12.60;5.10;;;;;;;11.32;100.00;100574.44;7381763;19;20499;-47
2022/04/22 11:50:09;;;;;;;12.00;4.80;;;;;;;11.43;100.00;100587.72;7392520;19;20398;-47
2022/04/22 11:52:41;;;;;;;10.77;5.20;;;;;;;11.44;100.00;100584.31;7386437;19;20420;-46
2022/04/22 11:55:12;;;;;;;16.87;5.20;;;;;;;11.60;100.00;100588.31;7390520;19;20410;-46
2022/04/22 11:57:42;;;;;;;8.00;4.87;;;;;;;11.86;100.00;100578.00;7385519;19;20430;-47
2022/04/22 12:05:37;;;;;;;10.57;4.90;;;;;;;12.89;100.00;100585.53;7388031;19;20419;-53
2022/04/22 12:08:15;;;;;;;14.70;5.63;;;;;;;13.12;100.00;100585.31;7385801;19;20436;-47
2022/04/22 12:10:46;;;;;;;9.87;5.00;;;;;;;13.25;100.00;100584.84;7391606;19;20409;-46
2022/04/22 12:13:16;;;;;;;9.90;5.10;;;;;;;13.20;100.00;100589.00;7386312;19;20435;-47
2022/04/22 12:15:48;;;;;;;14.10;5.93;;;;;;;13.20;100.00;100597.66;7389287;19;20436;-46
2022/04/22 12:18:32;;;;;;;13.17;5.80;;;;;;;13.19;100.00;100602.78;7383356;19;20466;-47
2022/04/22 12:21:02;;;;;;;9.93;5.17;;;;;;;13.26;100.00;100609.91;7390701;19;20390;-46
2022/04/22 12:23:39;;;;;;;10.13;5.00;;;;;;;13.23;100.00;100604.66;7383300;19;20405;-48
2022/04/22 12:26:16;;;;;;;12.77;5.40;;;;;;;13.40;100.00;100605.13;7395970;19;20423;-48
2022/04/22 12:29:00;;;;;;;15.30;5.53;;;;;;;13.93;100.00;100601.34;7391312;19;20967;-46
2022/04/22 12:31:30;;;;;;;12.87;5.07;;;;;;;14.32;100.00;100600.56;7398207;19;20414;-46
2022/04/22 12:34:04;;;;;;;12.53;5.70;;;;;;;14.07;100.00;100608.59;7388873;19;20419;-47
2022/04/22 12:36:37;;;;;;;12.70;5.40;;;;;;;13.68;100.00;100599.84;7398335;19;20384;-47
2022/04/22 12:39:11;;;;;;;22.00;7.90;;;;;;;13.55;100.00;100603.81;7389935;19;20491;-48